Stacja Pogody
Warszawa Praga-Północ

Szerokość 52°15'43"N Długość 21°01'22"E Wysokość 110m n.p.m.


209 dzień roku. Do końca pozostalo 157 dni.
Wschód Słońca 04:49 Górowanie Słońca 12:42 Zachód Słońca 20:35 lew
Data juliańska 2457597.060 Odległość Słońca 151900235 km Średn. kątowa Słońca 0,315°
Wschód Księżyca 00:00 Zachód Księżyca 13:56 Wiek Księżyca 23 dni Moon
Widoczność Księżyca 43,82% Odległość Księżyca 363371 km Średn. kątowa Księżyca 0,329°
Dzień krótszy od najdłuższego o: 01:01 Długość dnia 15:46 Imieniny Lilii, Julii, Natalii



  Aktualizacja: 27-07-2016 13:26:10
TEMPERATURA
Aktualnie: 28.9°C ↑
Temperatura odczuwalna:34.4°C
Punkt rosy17.5°C
WIATR
Średnia prędkość: 7.2km/h ↑
Prędkość w podmuchach:11.2km/h
Przepływ w ciągu doby:101.4km
Kierunek wiatru:135°
CIŚNIENIE
Względne:1015.8hPa
Bezwzględne:1002.6hPa
Trend ciśnienia:powolny spadek
WILGOTNOŚĆ
Wilgotność względna: 50% ↑
Podstawa chmur4101m
DESZCZ
W ostatniej godzinie: 0.0mm
Dzisiaj:0.0mm
W tym miesiącu:57.9mm
METAR
EPWA 271100Z 13007KT 070V190 9999 FEW040CB 29/18 Q1016 TEMPO 4000 TSRA
Ostrzeżenia burzowe





a  a a